Western Titan — WCX4599 — position and weather

sailwx.info

Track history (hours):
 
Tides and Currents Weather Stations Pressure Air Temp Water Temp Dewpoint Dewpoint Depression Visibility Wind Speed Wind Dir Waves Ship Positions

Western Titan

Owner: WESTERN TOWBOAT CO, SEATTLE, WA. More information available from US FCC via Universal Licensing System and Coast Guard Vessel Documentation Center.

Last reported at 2018-Jul-20 03:58 UTC. Time now 2018-Jul-23 02:06 UTC.
Position N 58°17' W 136°20'.

Type: Tow > 200 m length. MMSI: 338854000.

Date/timePositionNaut miles runAvg speedWind from/ knotsBaromVisibWave heightAir tempDewpointWater temp
2018-Jul-20 03:58N 58°17' W 136°20'510.3
2018-Jul-20 03:30N 58°16' W 136°12'5 9.4
2018-Jul-20 03:00N 58°15' W 136°03'5 9.3
2018-Jul-20 02:31N 58°17' W 135°54'5 9.3
2018-Jul-20 02:00N 58°18' W 135°46'5 9.3
2018-Jul-20 01:30N 58°16' W 135°38'5 9.5
2018-Jul-20 01:00N 58°14' W 135°31'  
2018-Jul-16 21:58N 54°45' W 130°54'5 8.9
2018-Jul-16 21:28N 54°41' W 130°50'4 9.1
2018-Jul-16 20:58N 54°38' W 130°45'4 9.0
2018-Jul-16 20:29N 54°34' W 130°44'5 9.7
2018-Jul-16 20:00N 54°29' W 130°41'5 9.6
2018-Jul-16 19:30N 54°25' W 130°38'5 9.2
2018-Jul-16 19:00N 54°20' W 130°36'4 8.7
2018-Jul-16 18:30N 54°16' W 130°33'5 9.2
2018-Jul-16 18:00N 54°12' W 130°29'5 9.5
2018-Jul-16 17:30N 54°08' W 130°25'5 9.4
2018-Jul-16 17:00N 54°05' W 130°19'4 8.9
2018-Jul-16 16:30N 54°02' W 130°14'5 9.4
2018-Jul-16 16:00N 53°57' W 130°12'4 8.2
2018-Jul-16 15:31N 53°54' W 130°07'5 9.1
2018-Jul-16 15:00N 53°51' W 130°02'5 8.9
2018-Jul-16 14:29N 53°47' W 129°57'84 8.1
2018-Jul-16 04:10N 52°41' W 128°33'1 7.9
2018-Jul-16 04:00N 52°40' W 128°32'4 8.3
2018-Jul-16 03:28N 52°36' W 128°29'4 8.2
2018-Jul-16 03:00N 52°32' W 128°28'4 9.0
2018-Jul-16 02:30N 52°27' W 128°27'5 9.2
2018-Jul-16 02:00N 52°23' W 128°31'4 8.4
2018-Jul-16 01:31N 52°19' W 128°31'4 8.8
2018-Jul-16 01:01N 52°16' W 128°26'5 9.5
2018-Jul-16 00:30N 52°15' W 128°18'4 8.7
2018-Jul-16 00:00N 52°16' W 128°12'4 8.5
2018-Jul-15 23:30N 52°18' W 128°05'9 7.2
2018-Jul-15 22:19N 52°13' W 127°54'3 9.3
2018-Jul-15 22:00N 52°10' W 127°52'5 9.1
2018-Jul-15 21:31N 52°06' W 127°54'5 9.6
2018-Jul-15 21:00N 52°01' W 127°55'4 8.2
2018-Jul-15 20:30N 51°57' W 127°56'4 8.6
2018-Jul-15 20:00N 51°53' W 127°56'5 9.5
2018-Jul-15 19:30N 51°48' W 127°56'5 9.5
2018-Jul-15 19:00N 51°43' W 127°55'5 9.3
2018-Jul-15 18:30N 51°39' W 127°55'5 9.3
2018-Jul-15 18:00N 51°34' W 127°53'4 8.7
2018-Jul-15 17:30N 51°30' W 127°51'5 9.3
2018-Jul-15 17:00N 51°25' W 127°52'4 9.1
2018-Jul-15 16:30N 51°21' W 127°54'5 9.1
2018-Jul-15 16:00N 51°16' W 127°52'5 9.3
2018-Jul-15 15:31N 51°12' W 127°51'5 9.3
2018-Jul-15 15:00N 51°07' W 127°49'510.1
2018-Jul-15 14:31N 51°04' W 127°42'5 9.9
2018-Jul-15 14:01N 51°01' W 127°37'510.1
2018-Jul-15 13:31N 50°58' W 127°30'611.0
2018-Jul-15 13:01N 50°54' W 127°24'510.3
2018-Jul-15 12:30N 50°51' W 127°17'5 9.9
2018-Jul-15 12:00N 50°48' W 127°12'5 9.5
2018-Jul-15 11:30N 50°45' W 127°06'5 9.5
2018-Jul-15 10:57N 50°42' W 126°58'4 9.0
2018-Jul-15 10:30N 50°41' W 126°53'4 8.6
2018-Jul-15 10:00N 50°38' W 126°47'5 8.9
2018-Jul-15 09:28N 50°35' W 126°42'5 7.8
2018-Jul-15 08:51N 50°31' W 126°37'3 9.8
2018-Jul-15 08:30N 50°30' W 126°32'30 9.9
2018-Jul-15 05:28N 50°22' W 125°46'1211.2
2018-Jul-15 04:22N 50°20' W 125°27'3 9.6
2018-Jul-15 04:01N 50°17' W 125°25'510.4
2018-Jul-15 03:31N 50°12' W 125°22'510.2
2018-Jul-15 03:01N 50°07' W 125°21'2 4.2
2018-Jul-15 02:31N 50°06' W 125°18'3 5.6
2018-Jul-15 02:00N 50°04' W 125°15'3 6.9
2018-Jul-15 01:31N 50°01' W 125°13'3 5.1
2018-Jul-15 01:00N 49°59' W 125°11'3 5.0
2018-Jul-15 00:30N 49°57' W 125°08'4 8.3
2018-Jul-15 00:00N 49°54' W 125°04'5 9.8
2018-Jul-14 23:30N 49°51' W 124°58'5 9.4
2018-Jul-14 23:00N 49°48' W 124°52'5 9.1
2018-Jul-14 22:30N 49°45' W 124°46'5 9.0
2018-Jul-14 22:00N 49°43' W 124°41'5 9.1
2018-Jul-14 21:30N 49°40' W 124°35'5 8.4
2018-Jul-14 20:55N 49°37' W 124°29'31 8.7
2018-Jul-14 17:19N 49°20' W 123°49'3 8.2
2018-Jul-14 16:58N 49°18' W 123°45'4 8.4
2018-Jul-14 16:28N 49°15' W 123°40'4 8.1
2018-Jul-14 15:58N 49°13' W 123°36'4 8.1
2018-Jul-14 15:27N 49°10' W 123°31'3 7.7
2018-Jul-14 15:00N 49°08' W 123°27'4 7.8
2018-Jul-14 14:30N 49°05' W 123°22'8 7.9
2018-Jul-14 13:29N 48°60' W 123°13'4 8.0
2018-Jul-14 13:00N 48°57' W 123°09'4 7.8
2018-Jul-14 12:30N 48°55' W 123°04'6 8.5
2018-Jul-14 11:48N 48°51' W 122°57'5 8.7
2018-Jul-14 11:14N 48°48' W 122°52'2 7.7
2018-Jul-14 10:56N 48°46' W 122°49'3 7.4
2018-Jul-14 10:29N 48°44' W 122°45'4 8.5
2018-Jul-14 10:00N 48°40' W 122°44'5 9.2
2018-Jul-14 09:30N 48°36' W 122°45'4 8.7
2018-Jul-14 09:01N 48°31' W 122°44'4 8.9
2018-Jul-14 08:31N 48°27' W 122°44'5 8.9
2018-Jul-14 07:59N 48°22' W 122°45'4 8.8
2018-Jul-14 07:31N 48°18' W 122°46'6 8.5
2018-Jul-14 06:47N 48°12' W 122°47'311.3
2018-Jul-14 06:29N 48°10' W 122°44'611.1
2018-Jul-14 05:56N 48°05' W 122°38'610.9
2018-Jul-14 05:25N 47°60' W 122°36'410.3
2018-Jul-14 05:00N 47°57' W 122°31'510.2
2018-Jul-14 04:30N 47°52' W 122°27'5 9.5
2018-Jul-14 04:01N 47°48' W 122°26'5 9.2
2018-Jul-14 03:31N 47°43' W 122°26'5 9.5
2018-Jul-14 03:01N 47°38' W 122°27'4 8.1
2018-Jul-14 02:30N 47°36' W 122°22'2 3.9
2018-Jul-14 02:00N 47°34' W 122°21'1 1.7
2018-Jul-14 01:30N 47°33' W 122°21'0 0.0
2018-Jul-14 01:01N 47°33' W 122°21'0 0.0
2018-Jul-14 00:31N 47°33' W 122°21'0 0.0
2018-Jul-14 00:00N 47°33' W 122°21'0 0.0
2018-Jul-13 23:28N 47°33' W 122°21'0 0.0
2018-Jul-13 22:56N 47°33' W 122°21'1 3.4
2018-Jul-13 22:30N 47°34' W 122°21'5 9.3
2018-Jul-13 22:01N 47°38' W 122°26'2 4.5
2018-Jul-13 21:30N 47°40' W 122°24'0 0.6
2018-Jul-13 21:00N 47°40' W 122°23'1 1.9
2018-Jul-13 20:25N 47°39' W 122°22'0 0.1
2018-Jul-13 19:58N 47°39' W 122°22'0 0.2
2018-Jul-13 19:30N 47°39' W 122°22'0 0.0
2018-Jul-13 19:00N 47°39' W 122°22'  
2018-Jul-10 17:25N 47°39' W 122°22'1 3.4
2018-Jul-10 17:00N 47°40' W 122°24'2 3.8
2018-Jul-10 16:30N 47°40' W 122°27'510.0
2018-Jul-10 16:00N 47°36' W 122°22'3 6.0
2018-Jul-10 15:30N 47°33' W 122°20'0 0.2
2018-Jul-10 15:00N 47°33' W 122°20'2 4.4
2018-Jul-10 14:30N 47°35' W 122°22'1 1.5
2018-Jul-10 14:00N 47°36' W 122°22'2 3.4
2018-Jul-10 13:30N 47°37' W 122°24'3 5.4
2018-Jul-10 13:00N 47°38' W 122°27'2 4.7
2018-Jul-10 12:30N 47°41' W 122°28'3 6.1
2018-Jul-10 12:00N 47°44' W 122°27'4 8.4
2018-Jul-10 11:30N 47°48' W 122°28'5 9.4
2018-Jul-10 11:00N 47°52' W 122°29'4 8.1
2018-Jul-10 10:30N 47°56' W 122°32'28 8.9
2018-Jul-10 07:21N 48°23' W 122°45'3 9.0
2018-Jul-10 06:59N 48°26' W 122°45'4 9.0
2018-Jul-10 06:30N 48°30' W 122°45'5 9.1
2018-Jul-10 06:00N 48°35' W 122°45'5 9.5
2018-Jul-10 05:30N 48°39' W 122°44'5 9.5
2018-Jul-10 05:00N 48°44' W 122°46'8 8.9
2018-Jul-10 04:09N 48°48' W 122°56'  
Track history (hours):
 
Tides and Currents Weather Stations Pressure Air Temp Water Temp Dewpoint Dewpoint Depression Visibility Wind Speed Wind Dir Waves Ship Positions

Western Titan

Owner: WESTERN TOWBOAT CO, SEATTLE, WA. More information available from US FCC via Universal Licensing System and Coast Guard Vessel Documentation Center.

Last reported at 2018-Jul-20 03:58 UTC. Time now 2018-Jul-23 02:06 UTC.
Position N 58°17' W 136°20'.

Type: Tow > 200 m length. MMSI: 338854000.

Date/timePositionNaut miles runAvg speedWind from/ knotsBaromVisibWave heightAir tempDewpointWater temp
2018-Jul-20 03:58N 58°17' W 136°20'510.3
2018-Jul-20 03:30N 58°16' W 136°12'5 9.4
2018-Jul-20 03:00N 58°15' W 136°03'5 9.3
2018-Jul-20 02:31N 58°17' W 135°54'5 9.3
2018-Jul-20 02:00N 58°18' W 135°46'5 9.3
2018-Jul-20 01:30N 58°16' W 135°38'5 9.5
2018-Jul-20 01:00N 58°14' W 135°31'  
2018-Jul-16 21:58N 54°45' W 130°54'5 8.9
2018-Jul-16 21:28N 54°41' W 130°50'4 9.1
2018-Jul-16 20:58N 54°38' W 130°45'4 9.0
2018-Jul-16 20:29N 54°34' W 130°44'5 9.7
2018-Jul-16 20:00N 54°29' W 130°41'5 9.6
2018-Jul-16 19:30N 54°25' W 130°38'5 9.2
2018-Jul-16 19:00N 54°20' W 130°36'4 8.7
2018-Jul-16 18:30N 54°16' W 130°33'5 9.2
2018-Jul-16 18:00N 54°12' W 130°29'5 9.5
2018-Jul-16 17:30N 54°08' W 130°25'5 9.4
2018-Jul-16 17:00N 54°05' W 130°19'4 8.9
2018-Jul-16 16:30N 54°02' W 130°14'5 9.4
2018-Jul-16 16:00N 53°57' W 130°12'4 8.2
2018-Jul-16 15:31N 53°54' W 130°07'5 9.1
2018-Jul-16 15:00N 53°51' W 130°02'5 8.9
2018-Jul-16 14:29N 53°47' W 129°57'84 8.1
2018-Jul-16 04:10N 52°41' W 128°33'1 7.9
2018-Jul-16 04:00N 52°40' W 128°32'4 8.3
2018-Jul-16 03:28N 52°36' W 128°29'4 8.2
2018-Jul-16 03:00N 52°32' W 128°28'4 9.0
2018-Jul-16 02:30N 52°27' W 128°27'5 9.2
2018-Jul-16 02:00N 52°23' W 128°31'4 8.4
2018-Jul-16 01:31N 52°19' W 128°31'4 8.8
2018-Jul-16 01:01N 52°16' W 128°26'5 9.5
2018-Jul-16 00:30N 52°15' W 128°18'4 8.7
2018-Jul-16 00:00N 52°16' W 128°12'4 8.5
2018-Jul-15 23:30N 52°18' W 128°05'9 7.2
2018-Jul-15 22:19N 52°13' W 127°54'3 9.3
2018-Jul-15 22:00N 52°10' W 127°52'5 9.1
2018-Jul-15 21:31N 52°06' W 127°54'5 9.6
2018-Jul-15 21:00N 52°01' W 127°55'4 8.2
2018-Jul-15 20:30N 51°57' W 127°56'4 8.6
2018-Jul-15 20:00N 51°53' W 127°56'5 9.5
2018-Jul-15 19:30N 51°48' W 127°56'5 9.5
2018-Jul-15 19:00N 51°43' W 127°55'5 9.3
2018-Jul-15 18:30N 51°39' W 127°55'5 9.3
2018-Jul-15 18:00N 51°34' W 127°53'4 8.7
2018-Jul-15 17:30N 51°30' W 127°51'5 9.3
2018-Jul-15 17:00N 51°25' W 127°52'4 9.1
2018-Jul-15 16:30N 51°21' W 127°54'5 9.1
2018-Jul-15 16:00N 51°16' W 127°52'5 9.3
2018-Jul-15 15:31N 51°12' W 127°51'5 9.3
2018-Jul-15 15:00N 51°07' W 127°49'510.1
2018-Jul-15 14:31N 51°04' W 127°42'5 9.9
2018-Jul-15 14:01N 51°01' W 127°37'510.1
2018-Jul-15 13:31N 50°58' W 127°30'611.0
2018-Jul-15 13:01N 50°54' W 127°24'510.3
2018-Jul-15 12:30N 50°51' W 127°17'5 9.9
2018-Jul-15 12:00N 50°48' W 127°12'5 9.5
2018-Jul-15 11:30N 50°45' W 127°06'5 9.5
2018-Jul-15 10:57N 50°42' W 126°58'4 9.0
2018-Jul-15 10:30N 50°41' W 126°53'4 8.6
2018-Jul-15 10:00N 50°38' W 126°47'5 8.9
2018-Jul-15 09:28N 50°35' W 126°42'5 7.8
2018-Jul-15 08:51N 50°31' W 126°37'3 9.8
2018-Jul-15 08:30N 50°30' W 126°32'30 9.9
2018-Jul-15 05:28N 50°22' W 125°46'1211.2
2018-Jul-15 04:22N 50°20' W 125°27'3 9.6
2018-Jul-15 04:01N 50°17' W 125°25'510.4
2018-Jul-15 03:31N 50°12' W 125°22'510.2
2018-Jul-15 03:01N 50°07' W 125°21'2 4.2
2018-Jul-15 02:31N 50°06' W 125°18'3 5.6
2018-Jul-15 02:00N 50°04' W 125°15'3 6.9
2018-Jul-15 01:31N 50°01' W 125°13'3 5.1
2018-Jul-15 01:00N 49°59' W 125°11'3 5.0
2018-Jul-15 00:30N 49°57' W 125°08'4 8.3
2018-Jul-15 00:00N 49°54' W 125°04'5 9.8
2018-Jul-14 23:30N 49°51' W 124°58'5 9.4
2018-Jul-14 23:00N 49°48' W 124°52'5 9.1
2018-Jul-14 22:30N 49°45' W 124°46'5 9.0
2018-Jul-14 22:00N 49°43' W 124°41'5 9.1
2018-Jul-14 21:30N 49°40' W 124°35'5 8.4
2018-Jul-14 20:55N 49°37' W 124°29'31 8.7
2018-Jul-14 17:19N 49°20' W 123°49'3 8.2
2018-Jul-14 16:58N 49°18' W 123°45'4 8.4
2018-Jul-14 16:28N 49°15' W 123°40'4 8.1
2018-Jul-14 15:58N 49°13' W 123°36'4 8.1
2018-Jul-14 15:27N 49°10' W 123°31'3 7.7
2018-Jul-14 15:00N 49°08' W 123°27'4 7.8
2018-Jul-14 14:30N 49°05' W 123°22'8 7.9
2018-Jul-14 13:29N 48°60' W 123°13'4 8.0
2018-Jul-14 13:00N 48°57' W 123°09'4 7.8
2018-Jul-14 12:30N 48°55' W 123°04'6 8.5
2018-Jul-14 11:48N 48°51' W 122°57'5 8.7
2018-Jul-14 11:14N 48°48' W 122°52'2 7.7
2018-Jul-14 10:56N 48°46' W 122°49'3 7.4
2018-Jul-14 10:29N 48°44' W 122°45'4 8.5
2018-Jul-14 10:00N 48°40' W 122°44'5 9.2
2018-Jul-14 09:30N 48°36' W 122°45'4 8.7
2018-Jul-14 09:01N 48°31' W 122°44'4 8.9
2018-Jul-14 08:31N 48°27' W 122°44'5 8.9
2018-Jul-14 07:59N 48°22' W 122°45'4 8.8
2018-Jul-14 07:31N 48°18' W 122°46'6 8.5
2018-Jul-14 06:47N 48°12' W 122°47'311.3
2018-Jul-14 06:29N 48°10' W 122°44'611.1
2018-Jul-14 05:56N 48°05' W 122°38'610.9
2018-Jul-14 05:25N 47°60' W 122°36'410.3
2018-Jul-14 05:00N 47°57' W 122°31'510.2
2018-Jul-14 04:30N 47°52' W 122°27'5 9.5
2018-Jul-14 04:01N 47°48' W 122°26'5 9.2
2018-Jul-14 03:31N 47°43' W 122°26'5 9.5
2018-Jul-14 03:01N 47°38' W 122°27'4 8.1
2018-Jul-14 02:30N 47°36' W 122°22'2 3.9
2018-Jul-14 02:00N 47°34' W 122°21'1 1.7
2018-Jul-14 01:30N 47°33' W 122°21'0 0.0
2018-Jul-14 01:01N 47°33' W 122°21'0 0.0
2018-Jul-14 00:31N 47°33' W 122°21'0 0.0
2018-Jul-14 00:00N 47°33' W 122°21'0 0.0
2018-Jul-13 23:28N 47°33' W 122°21'0 0.0
2018-Jul-13 22:56N 47°33' W 122°21'1 3.4
2018-Jul-13 22:30N 47°34' W 122°21'5 9.3
2018-Jul-13 22:01N 47°38' W 122°26'2 4.5
2018-Jul-13 21:30N 47°40' W 122°24'0 0.6
2018-Jul-13 21:00N 47°40' W 122°23'1 1.9
2018-Jul-13 20:25N 47°39' W 122°22'0 0.1
2018-Jul-13 19:58N 47°39' W 122°22'0 0.2
2018-Jul-13 19:30N 47°39' W 122°22'0 0.0
2018-Jul-13 19:00N 47°39' W 122°22'  
2018-Jul-10 17:25N 47°39' W 122°22'1 3.4
2018-Jul-10 17:00N 47°40' W 122°24'2 3.8
2018-Jul-10 16:30N 47°40' W 122°27'510.0
2018-Jul-10 16:00N 47°36' W 122°22'3 6.0
2018-Jul-10 15:30N 47°33' W 122°20'0 0.2
2018-Jul-10 15:00N 47°33' W 122°20'2 4.4
2018-Jul-10 14:30N 47°35' W 122°22'1 1.5
2018-Jul-10 14:00N 47°36' W 122°22'2 3.4
2018-Jul-10 13:30N 47°37' W 122°24'3 5.4
2018-Jul-10 13:00N 47°38' W 122°27'2 4.7
2018-Jul-10 12:30N 47°41' W 122°28'3 6.1
2018-Jul-10 12:00N 47°44' W 122°27'4 8.4
2018-Jul-10 11:30N 47°48' W 122°28'5 9.4
2018-Jul-10 11:00N 47°52' W 122°29'4 8.1
2018-Jul-10 10:30N 47°56' W 122°32'28 8.9
2018-Jul-10 07:21N 48°23' W 122°45'3 9.0
2018-Jul-10 06:59N 48°26' W 122°45'4 9.0
2018-Jul-10 06:30N 48°30' W 122°45'5 9.1
2018-Jul-10 06:00N 48°35' W 122°45'5 9.5
2018-Jul-10 05:30N 48°39' W 122°44'5 9.5
2018-Jul-10 05:00N 48°44' W 122°46'8 8.9
2018-Jul-10 04:09N 48°48' W 122°56'  

Dump ship's entire track history